メインページ
METAR-TAF:

METAR-TAF

空港 :

Doylestown Airport

Doylestown, ペンシルバニア州, アメリカ合衆国

緯度: 40-19-48N, 経度: 075-07-21W, 海抜: 120m

現時点の気象観測

当レポートは1時間4分前の04:54(UTC)に作成
北/北西の風 4kt
気温 9°C
湿度 76%
気圧 1012 hPa
視程: 16.1km
高度3700ftの千切れ雲あり
高度9000ftの曇り

METAR: KDYL 040454Z AUTO 34004KT 10SM BKN037 OVC090 09/05 A2988 RMK AO2 SLP120 T00940050 401500078

時間: 01:58 (05:58 UTC)


TAF: 見つかりません

4,000以上の空港の気象観測と天気予報(METAR報とTAF報)

利用可能な観測所は地図上に黄色い丸と赤い丸で示す。

丸の上にカーソルを重ねると観測所名を参照できる。

次にクリックすると気象観測と天気予報を参照できる。

マップの切り替え:黒色「×」印の緑ボタンをクリックして拡大、「-」印の緑ボタンをクリックして縮小、緑色の三角印をクリックして隣りの地図に切り替え


METAR-TAF: